sensor_id;sensor_type;location;lat;lon;timestamp;P1;durP1;ratioP1;P2;durP2;ratioP2
53915;SDS011;39827;49.652;18.770;2023-05-07T00:00:19;413.98;;;380.27;;
53915;SDS011;39827;49.652;18.770;2023-05-07T00:02:45;391.50;;;360.50;;
53915;SDS011;39827;49.652;18.770;2023-05-07T00:05:11;406.33;;;373.45;;
53915;SDS011;39827;49.652;18.770;2023-05-07T00:07:37;403.65;;;371.20;;
53915;SDS011;39827;49.652;18.770;2023-05-07T00:10:03;399.88;;;367.77;;
53915;SDS011;39827;49.652;18.770;2023-05-07T00:12:29;436.35;;;400.13;;
53915;SDS011;39827;49.652;18.770;2023-05-07T00:14:58;384.65;;;354.98;;
53915;SDS011;39827;49.652;18.770;2023-05-07T00:17:25;394.52;;;363.30;;
53915;SDS011;39827;49.652;18.770;2023-05-07T00:19:50;366.98;;;338.38;;
53915;SDS011;39827;49.652;18.770;2023-05-07T00:22:16;375.83;;;345.63;;
53915;SDS011;39827;49.652;18.770;2023-05-07T00:24:41;365.85;;;337.50;;
53915;SDS011;39827;49.652;18.770;2023-05-07T00:27:07;390.08;;;359.45;;
53915;SDS011;39827;49.652;18.770;2023-05-07T00:29:32;426.13;;;391.67;;
53915;SDS011;39827;49.652;18.770;2023-05-07T00:31:58;406.90;;;374.10;;
53915;SDS011;39827;49.652;18.770;2023-05-07T00:34:23;433.70;;;398.88;;
53915;SDS011;39827;49.652;18.770;2023-05-07T00:36:49;437.40;;;401.05;;
53915;SDS011;39827;49.652;18.770;2023-05-07T00:39:14;461.00;;;423.58;;
53915;SDS011;39827;49.652;18.770;2023-05-07T00:41:40;435.83;;;401.00;;
53915;SDS011;39827;49.652;18.770;2023-05-07T00:44:05;410.35;;;377.27;;
53915;SDS011;39827;49.652;18.770;2023-05-07T00:46:31;399.95;;;368.77;;
53915;SDS011;39827;49.652;18.770;2023-05-07T00:48:57;399.88;;;368.35;;
53915;SDS011;39827;49.652;18.770;2023-05-07T00:51:24;413.63;;;380.35;;
53915;SDS011;39827;49.652;18.770;2023-05-07T00:53:52;411.45;;;379.15;;
53915;SDS011;39827;49.652;18.770;2023-05-07T00:56:18;372.05;;;343.73;;
53915;SDS011;39827;49.652;18.770;2023-05-07T00:58:45;410.35;;;377.77;;
53915;SDS011;39827;49.652;18.770;2023-05-07T01:01:11;406.23;;;373.70;;
53915;SDS011;39827;49.652;18.770;2023-05-07T01:03:36;405.98;;;372.80;;
53915;SDS011;39827;49.652;18.770;2023-05-07T01:06:01;404.38;;;372.48;;
53915;SDS011;39827;49.652;18.770;2023-05-07T01:08:29;405.33;;;373.13;;
53915;SDS011;39827;49.652;18.770;2023-05-07T01:10:56;368.23;;;340.77;;
53915;SDS011;39827;49.652;18.770;2023-05-07T01:13:22;355.15;;;327.42;;
53915;SDS011;39827;49.652;18.770;2023-05-07T01:15:49;366.70;;;338.88;;
53915;SDS011;39827;49.652;18.770;2023-05-07T01:18:14;355.73;;;327.80;;
53915;SDS011;39827;49.652;18.770;2023-05-07T01:20:40;372.98;;;343.85;;
53915;SDS011;39827;49.652;18.770;2023-05-07T01:23:07;375.30;;;347.33;;
53915;SDS011;39827;49.652;18.770;2023-05-07T01:25:34;356.00;;;328.45;;
53915;SDS011;39827;49.652;18.770;2023-05-07T01:28:00;345.17;;;319.48;;
53915;SDS011;39827;49.652;18.770;2023-05-07T01:30:26;341.98;;;316.48;;
53915;SDS011;39827;49.652;18.770;2023-05-07T01:35:34;366.35;;;337.80;;
53915;SDS011;39827;49.652;18.770;2023-05-07T01:38:04;384.45;;;353.13;;
53915;SDS011;39827;49.652;18.770;2023-05-07T01:40:31;374.35;;;344.45;;
53915;SDS011;39827;49.652;18.770;2023-05-07T01:42:56;487.85;;;446.88;;
53915;SDS011;39827;49.652;18.770;2023-05-07T01:45:22;456.27;;;418.83;;
53915;SDS011;39827;49.652;18.770;2023-05-07T01:47:49;526.28;;;483.02;;
53915;SDS011;39827;49.652;18.770;2023-05-07T01:50:15;397.50;;;365.65;;
53915;SDS011;39827;49.652;18.770;2023-05-07T01:52:42;430.58;;;395.63;;
53915;SDS011;39827;49.652;18.770;2023-05-07T01:55:08;394.27;;;363.27;;
53915;SDS011;39827;49.652;18.770;2023-05-07T01:57:33;433.05;;;397.50;;
53915;SDS011;39827;49.652;18.770;2023-05-07T01:59:59;611.35;;;562.90;;
53915;SDS011;39827;49.652;18.770;2023-05-07T02:02:24;445.90;;;410.48;;
53915;SDS011;39827;49.652;18.770;2023-05-07T02:04:50;465.92;;;428.17;;
53915;SDS011;39827;49.652;18.770;2023-05-07T02:07:15;433.00;;;398.20;;
53915;SDS011;39827;49.652;18.770;2023-05-07T02:09:40;453.55;;;416.80;;
53915;SDS011;39827;49.652;18.770;2023-05-07T02:12:06;405.55;;;373.13;;
53915;SDS011;39827;49.652;18.770;2023-05-07T02:14:31;384.65;;;353.98;;
53915;SDS011;39827;49.652;18.770;2023-05-07T02:16:56;371.98;;;343.33;;
53915;SDS011;39827;49.652;18.770;2023-05-07T02:19:22;359.58;;;331.88;;
53915;SDS011;39827;49.652;18.770;2023-05-07T02:21:48;365.10;;;336.75;;
53915;SDS011;39827;49.652;18.770;2023-05-07T02:24:13;358.23;;;329.85;;
53915;SDS011;39827;49.652;18.770;2023-05-07T02:26:39;366.98;;;336.98;;
53915;SDS011;39827;49.652;18.770;2023-05-07T02:29:05;335.90;;;310.67;;
53915;SDS011;39827;49.652;18.770;2023-05-07T02:31:31;380.25;;;350.77;;
53915;SDS011;39827;49.652;18.770;2023-05-07T02:33:58;371.42;;;342.90;;
53915;SDS011;39827;49.652;18.770;2023-05-07T02:36:24;362.45;;;334.17;;
53915;SDS011;39827;49.652;18.770;2023-05-07T02:38:49;388.27;;;357.13;;
53915;SDS011;39827;49.652;18.770;2023-05-07T02:41:14;388.58;;;357.33;;
53915;SDS011;39827;49.652;18.770;2023-05-07T02:43:40;402.38;;;369.55;;
53915;SDS011;39827;49.652;18.770;2023-05-07T02:46:06;476.92;;;438.40;;
53915;SDS011;39827;49.652;18.770;2023-05-07T02:48:32;565.63;;;520.88;;
53915;SDS011;39827;49.652;18.770;2023-05-07T02:50:58;479.95;;;441.08;;
53915;SDS011;39827;49.652;18.770;2023-05-07T02:53:24;495.90;;;456.38;;
53915;SDS011;39827;49.652;18.770;2023-05-07T02:55:53;507.33;;;466.15;;
53915;SDS011;39827;49.652;18.770;2023-05-07T02:58:19;558.40;;;514.28;;
53915;SDS011;39827;49.652;18.770;2023-05-07T03:00:44;579.42;;;533.42;;
53915;SDS011;39827;49.652;18.770;2023-05-07T03:03:10;466.83;;;429.70;;
53915;SDS011;39827;49.652;18.770;2023-05-07T03:05:35;469.77;;;432.02;;
53915;SDS011;39827;49.652;18.770;2023-05-07T03:08:01;407.05;;;374.77;;
53915;SDS011;39827;49.652;18.770;2023-05-07T03:10:26;511.15;;;469.52;;
53915;SDS011;39827;49.652;18.770;2023-05-07T03:12:52;398.52;;;366.95;;
53915;SDS011;39827;49.652;18.770;2023-05-07T03:15:17;388.05;;;357.52;;
53915;SDS011;39827;49.652;18.770;2023-05-07T03:17:42;411.98;;;378.77;;
53915;SDS011;39827;49.652;18.770;2023-05-07T03:20:08;423.85;;;389.80;;
53915;SDS011;39827;49.652;18.770;2023-05-07T03:22:34;414.60;;;381.20;;
53915;SDS011;39827;49.652;18.770;2023-05-07T03:25:00;361.83;;;333.45;;
53915;SDS011;39827;49.652;18.770;2023-05-07T03:27:25;366.23;;;338.25;;
53915;SDS011;39827;49.652;18.770;2023-05-07T03:29:50;352.05;;;324.88;;
53915;SDS011;39827;49.652;18.770;2023-05-07T03:32:16;357.23;;;329.75;;
53915;SDS011;39827;49.652;18.770;2023-05-07T03:34:41;331.15;;;306.45;;
53915;SDS011;39827;49.652;18.770;2023-05-07T03:37:06;358.90;;;331.70;;
53915;SDS011;39827;49.652;18.770;2023-05-07T03:39:32;337.50;;;311.70;;
53915;SDS011;39827;49.652;18.770;2023-05-07T03:41:57;363.33;;;334.48;;
53915;SDS011;39827;49.652;18.770;2023-05-07T03:44:23;348.60;;;321.98;;
53915;SDS011;39827;49.652;18.770;2023-05-07T03:46:48;356.50;;;329.70;;
53915;SDS011;39827;49.652;18.770;2023-05-07T03:49:14;348.05;;;321.40;;
53915;SDS011;39827;49.652;18.770;2023-05-07T03:51:39;360.33;;;332.98;;
53915;SDS011;39827;49.652;18.770;2023-05-07T03:54:05;327.95;;;302.75;;
53915;SDS011;39827;49.652;18.770;2023-05-07T03:56:30;333.00;;;308.17;;
53915;SDS011;39827;49.652;18.770;2023-05-07T03:58:56;357.50;;;329.40;;
53915;SDS011;39827;49.652;18.770;2023-05-07T04:01:21;337.63;;;311.50;;
53915;SDS011;39827;49.652;18.770;2023-05-07T04:03:47;368.38;;;339.58;;
53915;SDS011;39827;49.652;18.770;2023-05-07T04:06:12;345.77;;;318.27;;
53915;SDS011;39827;49.652;18.770;2023-05-07T04:08:37;330.67;;;306.05;;
53915;SDS011;39827;49.652;18.770;2023-05-07T04:11:03;321.42;;;297.17;;
53915;SDS011;39827;49.652;18.770;2023-05-07T04:13:29;364.23;;;336.67;;
53915;SDS011;39827;49.652;18.770;2023-05-07T04:15:55;336.65;;;311.02;;
53915;SDS011;39827;49.652;18.770;2023-05-07T04:18:21;344.45;;;318.08;;
53915;SDS011;39827;49.652;18.770;2023-05-07T04:20:49;353.73;;;326.80;;
53915;SDS011;39827;49.652;18.770;2023-05-07T04:23:15;346.40;;;319.23;;
53915;SDS011;39827;49.652;18.770;2023-05-07T04:25:40;338.38;;;312.48;;
53915;SDS011;39827;49.652;18.770;2023-05-07T04:28:06;404.85;;;371.98;;
53915;SDS011;39827;49.652;18.770;2023-05-07T04:30:32;378.98;;;349.90;;
53915;SDS011;39827;49.652;18.770;2023-05-07T04:32:57;373.73;;;344.65;;
53915;SDS011;39827;49.652;18.770;2023-05-07T04:35:22;369.30;;;340.75;;
53915;SDS011;39827;49.652;18.770;2023-05-07T04:37:48;330.75;;;306.00;;
53915;SDS011;39827;49.652;18.770;2023-05-07T04:40:13;347.40;;;319.95;;
53915;SDS011;39827;49.652;18.770;2023-05-07T04:42:39;331.98;;;305.92;;
53915;SDS011;39827;49.652;18.770;2023-05-07T04:45:04;348.27;;;321.05;;
53915;SDS011;39827;49.652;18.770;2023-05-07T04:47:30;465.33;;;427.27;;
53915;SDS011;39827;49.652;18.770;2023-05-07T04:49:56;497.60;;;456.63;;
53915;SDS011;39827;49.652;18.770;2023-05-07T04:52:22;372.27;;;342.10;;
53915;SDS011;39827;49.652;18.770;2023-05-07T04:54:48;405.48;;;371.27;;
53915;SDS011;39827;49.652;18.770;2023-05-07T04:57:13;333.95;;;308.52;;
53915;SDS011;39827;49.652;18.770;2023-05-07T04:59:38;352.83;;;324.40;;
53915;SDS011;39827;49.652;18.770;2023-05-07T05:02:04;358.02;;;329.92;;
53915;SDS011;39827;49.652;18.770;2023-05-07T05:04:29;336.88;;;311.38;;
53915;SDS011;39827;49.652;18.770;2023-05-07T05:06:55;333.08;;;305.55;;
53915;SDS011;39827;49.652;18.770;2023-05-07T05:09:21;398.63;;;365.30;;
53915;SDS011;39827;49.652;18.770;2023-05-07T05:11:46;398.35;;;365.52;;
53915;SDS011;39827;49.652;18.770;2023-05-07T05:14:11;363.20;;;332.85;;
53915;SDS011;39827;49.652;18.770;2023-05-07T05:16:37;354.45;;;326.10;;
53915;SDS011;39827;49.652;18.770;2023-05-07T05:19:02;358.27;;;329.25;;
53915;SDS011;39827;49.652;18.770;2023-05-07T05:21:27;346.02;;;318.25;;
53915;SDS011;39827;49.652;18.770;2023-05-07T05:23:53;332.35;;;306.15;;
53915;SDS011;39827;49.652;18.770;2023-05-07T05:26:19;344.83;;;317.30;;
53915;SDS011;39827;49.652;18.770;2023-05-07T05:28:46;364.92;;;334.83;;
53915;SDS011;39827;49.652;18.770;2023-05-07T05:31:11;376.23;;;345.00;;
53915;SDS011;39827;49.652;18.770;2023-05-07T05:33:36;344.50;;;316.42;;
53915;SDS011;39827;49.652;18.770;2023-05-07T05:36:02;462.92;;;424.48;;
53915;SDS011;39827;49.652;18.770;2023-05-07T05:38:28;394.25;;;361.75;;
53915;SDS011;39827;49.652;18.770;2023-05-07T05:40:53;571.88;;;524.92;;
53915;SDS011;39827;49.652;18.770;2023-05-07T05:43:18;456.80;;;419.05;;
53915;SDS011;39827;49.652;18.770;2023-05-07T05:45:44;359.23;;;329.95;;
53915;SDS011;39827;49.652;18.770;2023-05-07T05:48:09;486.92;;;445.92;;
53915;SDS011;39827;49.652;18.770;2023-05-07T05:50:35;465.65;;;427.20;;
53915;SDS011;39827;49.652;18.770;2023-05-07T05:53:03;588.45;;;541.42;;
53915;SDS011;39827;49.652;18.770;2023-05-07T05:55:28;637.50;;;587.28;;
53915;SDS011;39827;49.652;18.770;2023-05-07T05:57:57;615.90;;;567.03;;
53915;SDS011;39827;49.652;18.770;2023-05-07T06:00:22;687.38;;;632.97;;
53915;SDS011;39827;49.652;18.770;2023-05-07T06:02:48;670.55;;;617.10;;
53915;SDS011;39827;49.652;18.770;2023-05-07T06:05:13;661.80;;;609.25;;
53915;SDS011;39827;49.652;18.770;2023-05-07T06:07:39;582.72;;;535.40;;
53915;SDS011;39827;49.652;18.770;2023-05-07T06:10:05;606.13;;;557.38;;
53915;SDS011;39827;49.652;18.770;2023-05-07T06:12:31;626.03;;;575.72;;
53915;SDS011;39827;49.652;18.770;2023-05-07T06:14:56;589.10;;;541.47;;
53915;SDS011;39827;49.652;18.770;2023-05-07T06:17:22;640.60;;;589.58;;
53915;SDS011;39827;49.652;18.770;2023-05-07T06:19:47;666.97;;;613.80;;
53915;SDS011;39827;49.652;18.770;2023-05-07T06:22:13;640.33;;;588.33;;
53915;SDS011;39827;49.652;18.770;2023-05-07T06:24:38;573.72;;;526.22;;
53915;SDS011;39827;49.652;18.770;2023-05-07T06:27:03;591.28;;;542.72;;
53915;SDS011;39827;49.652;18.770;2023-05-07T06:29:29;632.92;;;581.70;;
53915;SDS011;39827;49.652;18.770;2023-05-07T06:32:02;627.72;;;577.03;;
53915;SDS011;39827;49.652;18.770;2023-05-07T06:34:31;653.72;;;600.72;;
53915;SDS011;39827;49.652;18.770;2023-05-07T06:36:57;641.70;;;589.67;;
53915;SDS011;39827;49.652;18.770;2023-05-07T06:39:23;621.83;;;572.25;;
53915;SDS011;39827;49.652;18.770;2023-05-07T06:41:48;615.33;;;566.28;;
53915;SDS011;39827;49.652;18.770;2023-05-07T06:44:13;572.15;;;525.67;;
53915;SDS011;39827;49.652;18.770;2023-05-07T06:46:40;548.13;;;503.52;;
53915;SDS011;39827;49.652;18.770;2023-05-07T06:49:06;512.10;;;470.17;;
53915;SDS011;39827;49.652;18.770;2023-05-07T06:51:32;469.92;;;430.98;;
53915;SDS011;39827;49.652;18.770;2023-05-07T06:53:57;381.90;;;351.48;;
53915;SDS011;39827;49.652;18.770;2023-05-07T06:56:23;375.52;;;345.67;;
53915;SDS011;39827;49.652;18.770;2023-05-07T06:58:48;367.75;;;339.10;;
53915;SDS011;39827;49.652;18.770;2023-05-07T07:01:14;381.10;;;351.00;;
53915;SDS011;39827;49.652;18.770;2023-05-07T07:03:40;360.92;;;331.77;;
53915;SDS011;39827;49.652;18.770;2023-05-07T07:06:05;380.83;;;350.13;;
53915;SDS011;39827;49.652;18.770;2023-05-07T07:08:31;378.13;;;348.10;;
53915;SDS011;39827;49.652;18.770;2023-05-07T07:10:56;362.58;;;334.42;;
53915;SDS011;39827;49.652;18.770;2023-05-07T07:13:21;359.40;;;331.58;;
53915;SDS011;39827;49.652;18.770;2023-05-07T07:15:47;371.42;;;342.83;;
53915;SDS011;39827;49.652;18.770;2023-05-07T07:18:12;427.02;;;392.70;;
53915;SDS011;39827;49.652;18.770;2023-05-07T07:20:37;389.77;;;359.25;;
53915;SDS011;39827;49.652;18.770;2023-05-07T07:23:03;343.88;;;317.02;;
53915;SDS011;39827;49.652;18.770;2023-05-07T07:25:28;313.58;;;288.52;;
53915;SDS011;39827;49.652;18.770;2023-05-07T07:27:54;369.88;;;341.08;;
53915;SDS011;39827;49.652;18.770;2023-05-07T07:30:19;468.40;;;430.95;;
53915;SDS011;39827;49.652;18.770;2023-05-07T07:32:44;504.60;;;463.20;;
53915;SDS011;39827;49.652;18.770;2023-05-07T07:35:10;356.50;;;329.42;;
53915;SDS011;39827;49.652;18.770;2023-05-07T07:37:35;392.48;;;362.40;;
53915;SDS011;39827;49.652;18.770;2023-05-07T07:40:01;357.83;;;330.88;;
53915;SDS011;39827;49.652;18.770;2023-05-07T07:42:28;379.25;;;349.77;;
53915;SDS011;39827;49.652;18.770;2023-05-07T07:44:54;462.33;;;425.23;;
53915;SDS011;39827;49.652;18.770;2023-05-07T07:47:19;439.77;;;405.45;;
53915;SDS011;39827;49.652;18.770;2023-05-07T07:49:45;353.17;;;325.20;;
53915;SDS011;39827;49.652;18.770;2023-05-07T07:52:10;358.25;;;330.90;;
53915;SDS011;39827;49.652;18.770;2023-05-07T07:54:36;450.05;;;414.92;;
53915;SDS011;39827;49.652;18.770;2023-05-07T07:57:01;440.33;;;405.50;;
53915;SDS011;39827;49.652;18.770;2023-05-07T07:59:26;458.13;;;420.55;;
53915;SDS011;39827;49.652;18.770;2023-05-07T08:01:52;464.05;;;427.63;;
53915;SDS011;39827;49.652;18.770;2023-05-07T08:04:20;554.47;;;510.08;;
53915;SDS011;39827;49.652;18.770;2023-05-07T08:06:47;531.40;;;487.40;;
53915;SDS011;39827;49.652;18.770;2023-05-07T08:09:13;602.17;;;555.53;;
53915;SDS011;39827;49.652;18.770;2023-05-07T08:11:38;634.47;;;585.35;;
53915;SDS011;39827;49.652;18.770;2023-05-07T08:14:04;611.20;;;561.92;;
53915;SDS011;39827;49.652;18.770;2023-05-07T08:16:30;563.30;;;518.00;;
53915;SDS011;39827;49.652;18.770;2023-05-07T08:18:55;682.30;;;626.67;;
53915;SDS011;39827;49.652;18.770;2023-05-07T08:21:21;624.40;;;574.63;;
53915;SDS011;39827;49.652;18.770;2023-05-07T08:23:47;676.75;;;624.22;;
53915;SDS011;39827;49.652;18.770;2023-05-07T08:26:12;636.10;;;587.03;;
53915;SDS011;39827;49.652;18.770;2023-05-07T08:28:38;616.05;;;567.08;;
53915;SDS011;39827;49.652;18.770;2023-05-07T08:31:04;596.72;;;547.92;;
53915;SDS011;39827;49.652;18.770;2023-05-07T08:33:30;592.08;;;544.03;;
53915;SDS011;39827;49.652;18.770;2023-05-07T08:35:56;684.17;;;629.10;;
53915;SDS011;39827;49.652;18.770;2023-05-07T08:38:21;697.25;;;641.22;;
53915;SDS011;39827;49.652;18.770;2023-05-07T08:40:46;515.92;;;472.20;;
53915;SDS011;39827;49.652;18.770;2023-05-07T08:43:13;523.90;;;480.58;;
53915;SDS011;39827;49.652;18.770;2023-05-07T08:45:39;601.45;;;552.72;;
53915;SDS011;39827;49.652;18.770;2023-05-07T08:48:08;463.65;;;424.75;;
53915;SDS011;39827;49.652;18.770;2023-05-07T08:50:38;495.73;;;453.45;;
53915;SDS011;39827;49.652;18.770;2023-05-07T08:53:04;546.78;;;501.40;;
53915;SDS011;39827;49.652;18.770;2023-05-07T08:55:30;510.98;;;468.33;;
53915;SDS011;39827;49.652;18.770;2023-05-07T08:57:55;522.53;;;478.65;;
53915;SDS011;39827;49.652;18.770;2023-05-07T09:00:21;547.63;;;502.92;;
53915;SDS011;39827;49.652;18.770;2023-05-07T09:02:46;582.00;;;534.70;;
53915;SDS011;39827;49.652;18.770;2023-05-07T09:05:12;558.72;;;513.45;;
53915;SDS011;39827;49.652;18.770;2023-05-07T09:07:37;497.52;;;458.10;;
53915;SDS011;39827;49.652;18.770;2023-05-07T09:10:03;376.02;;;346.73;;
53915;SDS011;39827;49.652;18.770;2023-05-07T09:12:29;384.35;;;354.80;;
53915;SDS011;39827;49.652;18.770;2023-05-07T09:14:55;422.42;;;388.75;;
53915;SDS011;39827;49.652;18.770;2023-05-07T09:17:21;343.98;;;316.65;;
53915;SDS011;39827;49.652;18.770;2023-05-07T09:19:46;330.20;;;304.17;;
53915;SDS011;39827;49.652;18.770;2023-05-07T09:22:12;309.00;;;284.55;;
53915;SDS011;39827;49.652;18.770;2023-05-07T09:24:38;332.60;;;306.63;;
53915;SDS011;39827;49.652;18.770;2023-05-07T09:27:04;316.65;;;291.77;;
53915;SDS011;39827;49.652;18.770;2023-05-07T09:29:31;293.95;;;270.60;;
53915;SDS011;39827;49.652;18.770;2023-05-07T09:32:05;292.30;;;269.42;;
53915;SDS011;39827;49.652;18.770;2023-05-07T09:34:32;304.75;;;280.83;;
53915;SDS011;39827;49.652;18.770;2023-05-07T09:37:01;289.65;;;266.60;;
53915;SDS011;39827;49.652;18.770;2023-05-07T09:39:38;298.63;;;274.83;;
53915;SDS011;39827;49.652;18.770;2023-05-07T09:42:07;587.15;;;538.33;;
53915;SDS011;39827;49.652;18.770;2023-05-07T09:44:34;412.33;;;376.40;;
53915;SDS011;39827;49.652;18.770;2023-05-07T09:47:00;325.98;;;298.83;;
53915;SDS011;39827;49.652;18.770;2023-05-07T09:49:29;309.25;;;283.13;;
53915;SDS011;39827;49.652;18.770;2023-05-07T09:51:55;340.58;;;311.60;;
53915;SDS011;39827;49.652;18.770;2023-05-07T09:54:22;336.02;;;309.52;;
53915;SDS011;39827;49.652;18.770;2023-05-07T09:56:50;353.50;;;325.63;;
53915;SDS011;39827;49.652;18.770;2023-05-07T09:59:17;349.60;;;321.48;;
53915;SDS011;39827;49.652;18.770;2023-05-07T10:01:45;316.75;;;292.63;;
53915;SDS011;39827;49.652;18.770;2023-05-07T10:04:11;322.60;;;297.88;;
53915;SDS011;39827;49.652;18.770;2023-05-07T10:06:37;297.15;;;273.55;;
53915;SDS011;39827;49.652;18.770;2023-05-07T10:09:03;350.58;;;322.52;;
53915;SDS011;39827;49.652;18.770;2023-05-07T10:11:33;362.65;;;333.77;;
53915;SDS011;39827;49.652;18.770;2023-05-07T10:13:59;335.75;;;309.20;;
53915;SDS011;39827;49.652;18.770;2023-05-07T10:16:27;333.58;;;307.08;;
53915;SDS011;39827;49.652;18.770;2023-05-07T10:18:57;332.45;;;306.52;;
53915;SDS011;39827;49.652;18.770;2023-05-07T10:21:23;387.40;;;355.23;;
53915;SDS011;39827;49.652;18.770;2023-05-07T10:23:50;359.48;;;330.88;;
53915;SDS011;39827;49.652;18.770;2023-05-07T10:26:18;373.77;;;342.25;;
53915;SDS011;39827;49.652;18.770;2023-05-07T10:28:49;353.02;;;323.77;;
53915;SDS011;39827;49.652;18.770;2023-05-07T10:31:23;327.83;;;301.60;;
53915;SDS011;39827;49.652;18.770;2023-05-07T10:34:07;359.17;;;329.45;;
53915;SDS011;39827;49.652;18.770;2023-05-07T10:36:41;448.40;;;409.63;;
53915;SDS011;39827;49.652;18.770;2023-05-07T10:39:07;471.63;;;430.75;;
53915;SDS011;39827;49.652;18.770;2023-05-07T10:41:33;398.98;;;365.73;;
53915;SDS011;39827;49.652;18.770;2023-05-07T10:43:58;321.67;;;295.33;;
53915;SDS011;39827;49.652;18.770;2023-05-07T10:46:26;338.65;;;311.45;;
53915;SDS011;39827;49.652;18.770;2023-05-07T10:51:31;306.33;;;280.73;;
53915;SDS011;39827;49.652;18.770;2023-05-07T10:54:31;293.33;;;268.88;;
53915;SDS011;39827;49.652;18.770;2023-05-07T10:56:50;307.83;;;282.95;;
53915;SDS011;39827;49.652;18.770;2023-05-07T11:01:56;393.42;;;357.63;;
53915;SDS011;39827;49.652;18.770;2023-05-07T11:04:28;327.17;;;298.67;;
53915;SDS011;39827;49.652;18.770;2023-05-07T11:12:17;307.85;;;280.80;;
53915;SDS011;39827;49.652;18.770;2023-05-07T11:15:01;346.67;;;316.80;;
53915;SDS011;39827;49.652;18.770;2023-05-07T11:17:29;325.55;;;297.88;;
53915;SDS011;39827;49.652;18.770;2023-05-07T11:20:00;328.30;;;299.58;;
53915;SDS011;39827;49.652;18.770;2023-05-07T11:25:02;417.45;;;379.63;;
53915;SDS011;39827;49.652;18.770;2023-05-07T11:27:28;465.17;;;424.40;;
53915;SDS011;39827;49.652;18.770;2023-05-07T11:29:54;446.67;;;406.77;;
53915;SDS011;39827;49.652;18.770;2023-05-07T11:32:23;333.15;;;304.50;;
53915;SDS011;39827;49.652;18.770;2023-05-07T11:34:52;298.40;;;274.08;;
53915;SDS011;39827;49.652;18.770;2023-05-07T11:37:21;506.15;;;461.75;;
53915;SDS011;39827;49.652;18.770;2023-05-07T11:39:48;537.22;;;490.17;;
53915;SDS011;39827;49.652;18.770;2023-05-07T11:44:53;624.58;;;573.15;;
53915;SDS011;39827;49.652;18.770;2023-05-07T11:47:20;563.83;;;515.33;;
53915;SDS011;39827;49.652;18.770;2023-05-07T11:49:48;628.88;;;576.17;;
53915;SDS011;39827;49.652;18.770;2023-05-07T11:52:15;662.42;;;608.03;;
53915;SDS011;39827;49.652;18.770;2023-05-07T11:54:44;528.15;;;482.95;;
53915;SDS011;39827;49.652;18.770;2023-05-07T11:57:16;541.55;;;494.45;;
53915;SDS011;39827;49.652;18.770;2023-05-07T11:59:42;569.53;;;520.33;;
53915;SDS011;39827;49.652;18.770;2023-05-07T12:02:09;695.75;;;638.42;;
53915;SDS011;39827;49.652;18.770;2023-05-07T12:04:35;501.27;;;457.13;;
53915;SDS011;39827;49.652;18.770;2023-05-07T12:07:01;641.60;;;587.45;;
53915;SDS011;39827;49.652;18.770;2023-05-07T12:09:26;757.38;;;696.10;;
53915;SDS011;39827;49.652;18.770;2023-05-07T12:11:52;692.20;;;634.85;;
53915;SDS011;39827;49.652;18.770;2023-05-07T12:14:17;561.05;;;512.20;;
53915;SDS011;39827;49.652;18.770;2023-05-07T12:16:43;682.55;;;625.70;;
53915;SDS011;39827;49.652;18.770;2023-05-07T12:19:10;615.92;;;562.97;;
53915;SDS011;39827;49.652;18.770;2023-05-07T12:21:37;615.13;;;562.47;;
53915;SDS011;39827;49.652;18.770;2023-05-07T12:24:04;658.17;;;602.22;;
53915;SDS011;39827;49.652;18.770;2023-05-07T12:26:30;627.47;;;573.30;;
53915;SDS011;39827;49.652;18.770;2023-05-07T12:28:57;669.40;;;612.83;;
53915;SDS011;39827;49.652;18.770;2023-05-07T12:31:22;586.33;;;535.22;;
53915;SDS011;39827;49.652;18.770;2023-05-07T12:33:51;766.47;;;703.28;;
53915;SDS011;39827;49.652;18.770;2023-05-07T12:36:16;707.50;;;648.17;;
53915;SDS011;39827;49.652;18.770;2023-05-07T12:38:41;589.47;;;538.13;;
53915;SDS011;39827;49.652;18.770;2023-05-07T12:41:08;591.15;;;539.90;;
53915;SDS011;39827;49.652;18.770;2023-05-07T12:43:35;673.80;;;617.28;;
53915;SDS011;39827;49.652;18.770;2023-05-07T12:46:02;706.83;;;647.55;;
53915;SDS011;39827;49.652;18.770;2023-05-07T12:48:30;769.47;;;706.08;;
53915;SDS011;39827;49.652;18.770;2023-05-07T12:50:57;696.42;;;637.80;;
53915;SDS011;39827;49.652;18.770;2023-05-07T12:53:25;553.95;;;504.75;;
53915;SDS011;39827;49.652;18.770;2023-05-07T12:55:52;617.67;;;564.47;;
53915;SDS011;39827;49.652;18.770;2023-05-07T12:58:19;722.95;;;662.63;;
53915;SDS011;39827;49.652;18.770;2023-05-07T13:00:49;709.33;;;650.35;;
53915;SDS011;39827;49.652;18.770;2023-05-07T13:03:22;731.17;;;671.17;;
53915;SDS011;39827;49.652;18.770;2023-05-07T13:05:56;659.67;;;604.28;;
53915;SDS011;39827;49.652;18.770;2023-05-07T13:08:27;686.72;;;629.45;;
53915;SDS011;39827;49.652;18.770;2023-05-07T13:10:58;806.15;;;740.08;;
53915;SDS011;39827;49.652;18.770;2023-05-07T13:13:25;705.70;;;646.90;;
53915;SDS011;39827;49.652;18.770;2023-05-07T13:15:51;665.30;;;609.45;;
53915;SDS011;39827;49.652;18.770;2023-05-07T13:18:16;635.53;;;581.95;;
53915;SDS011;39827;49.652;18.770;2023-05-07T13:20:42;529.05;;;482.13;;
53915;SDS011;39827;49.652;18.770;2023-05-07T13:23:08;574.30;;;524.72;;
53915;SDS011;39827;49.652;18.770;2023-05-07T13:25:33;572.55;;;522.70;;
53915;SDS011;39827;49.652;18.770;2023-05-07T13:27:59;513.60;;;467.50;;
53915;SDS011;39827;49.652;18.770;2023-05-07T13:30:25;614.13;;;561.70;;
53915;SDS011;39827;49.652;18.770;2023-05-07T13:32:50;591.45;;;539.42;;
53915;SDS011;39827;49.652;18.770;2023-05-07T13:35:17;657.60;;;602.35;;
53915;SDS011;39827;49.652;18.770;2023-05-07T13:37:42;629.97;;;576.78;;
53915;SDS011;39827;49.652;18.770;2023-05-07T13:40:08;605.35;;;554.13;;
53915;SDS011;39827;49.652;18.770;2023-05-07T13:42:33;510.48;;;465.88;;
53915;SDS011;39827;49.652;18.770;2023-05-07T13:44:59;577.75;;;529.55;;
53915;SDS011;39827;49.652;18.770;2023-05-07T13:47:24;469.73;;;429.15;;
53915;SDS011;39827;49.652;18.770;2023-05-07T13:49:49;525.47;;;480.20;;
53915;SDS011;39827;49.652;18.770;2023-05-07T13:52:16;648.38;;;593.65;;
53915;SDS011;39827;49.652;18.770;2023-05-07T13:54:41;696.33;;;639.97;;
53915;SDS011;39827;49.652;18.770;2023-05-07T13:57:07;630.63;;;578.90;;